createdAt,value
2023-04-02T00:01:33.330Z,37.78
2023-04-02T00:04:17.101Z,35.20
2023-04-02T00:06:41.282Z,33.03
2023-04-02T00:08:49.912Z,32.58
2023-04-02T00:10:58.630Z,33.30
2023-04-02T00:13:20.561Z,32.17
2023-04-02T00:15:27.686Z,27.65
2023-04-02T00:17:34.613Z,31.27
2023-04-02T00:19:50.038Z,36.65
2023-04-02T00:21:57.579Z,30.20
2023-04-02T00:24:10.393Z,31.50
2023-04-02T00:26:33.511Z,29.70
2023-04-02T00:28:40.888Z,28.70
2023-04-02T00:30:57.186Z,30.30
2023-04-02T00:33:05.202Z,26.58
2023-04-02T00:35:22.096Z,31.27
2023-04-02T00:37:40.333Z,29.52
2023-04-02T00:39:47.363Z,30.23
2023-04-02T00:42:05.968Z,29.80
2023-04-02T00:44:16.832Z,30.00
2023-04-02T00:46:28.577Z,29.58
2023-04-02T00:48:45.680Z,35.20
2023-04-02T00:50:56.292Z,28.17
2023-04-02T00:53:07.796Z,30.20
2023-04-02T00:57:26.580Z,28.38
2023-04-02T00:59:35.116Z,30.83
2023-04-02T01:01:43.716Z,30.67
2023-04-02T01:03:59.251Z,32.17
2023-04-02T01:06:13.443Z,30.75
2023-04-02T01:08:30.661Z,29.75
2023-04-02T01:10:58.190Z,30.90
2023-04-02T01:13:15.284Z,28.60
2023-04-02T01:15:25.333Z,32.20
2023-04-02T01:17:49.893Z,33.55
2023-04-02T01:20:31.050Z,33.65
2023-04-02T01:22:49.031Z,29.92
2023-04-02T01:25:00.885Z,29.52
2023-04-02T01:27:11.744Z,30.88
2023-04-02T01:29:23.587Z,28.38
2023-04-02T01:31:31.619Z,30.33
2023-04-02T01:33:39.327Z,30.08
2023-04-02T01:35:50.362Z,27.73
2023-04-02T01:38:05.983Z,28.02
2023-04-02T01:40:34.305Z,30.15
2023-04-02T01:42:48.821Z,26.05
2023-04-02T01:45:04.294Z,29.27
2023-04-02T01:47:15.719Z,26.58
2023-04-02T01:51:33.088Z,26.50
2023-04-02T01:53:42.942Z,30.65
2023-04-02T01:55:51.914Z,29.52
2023-04-02T01:58:00.529Z,28.55
2023-04-02T02:00:14.006Z,28.60
2023-04-02T02:02:24.823Z,26.92
2023-04-02T02:04:33.102Z,28.05
2023-04-02T02:06:40.570Z,30.98
2023-04-02T02:08:53.794Z,33.80
2023-04-02T02:11:02.366Z,28.55
2023-04-02T02:13:09.591Z,29.48
2023-04-02T02:15:23.332Z,30.75
2023-04-02T02:17:35.453Z,27.55
2023-04-02T02:19:46.037Z,46.55
2023-04-02T02:21:56.444Z,42.53
2023-04-02T02:24:05.986Z,30.58
2023-04-02T02:26:16.496Z,29.10
2023-04-02T02:28:27.155Z,28.92
2023-04-02T02:30:39.303Z,25.25
2023-04-02T02:32:56.035Z,26.33
2023-04-02T02:35:09.948Z,23.67
2023-04-02T02:37:20.974Z,37.42
2023-04-02T02:39:33.015Z,31.00
2023-04-02T02:41:46.045Z,26.75
2023-04-02T02:43:59.671Z,27.42
2023-04-02T02:46:11.411Z,29.90
2023-04-02T02:48:21.451Z,28.87
2023-04-02T02:50:32.840Z,32.55
2023-04-02T02:52:50.459Z,35.75
2023-04-02T02:55:01.256Z,26.98
2023-04-02T02:57:24.965Z,26.87
2023-04-02T02:59:33.977Z,28.08
2023-04-02T03:01:45.809Z,27.15
2023-04-02T03:03:57.471Z,25.63
2023-04-02T03:06:09.508Z,27.73
2023-04-02T03:08:24.918Z,25.15
2023-04-02T03:10:40.183Z,24.98
2023-04-02T03:12:52.536Z,29.35
2023-04-02T03:15:07.280Z,28.25
2023-04-02T03:17:24.384Z,22.42
2023-04-02T03:19:38.461Z,25.30
2023-04-02T03:21:55.320Z,26.48
2023-04-02T03:24:06.900Z,19.85
2023-04-02T03:26:18.281Z,26.40
2023-04-02T03:28:30.793Z,24.65
2023-04-02T03:32:55.453Z,18.03
2023-04-02T03:35:09.490Z,20.85
2023-04-02T03:37:22.094Z,25.50
2023-04-02T03:39:35.932Z,18.35
2023-04-02T03:41:47.947Z,21.63
2023-04-02T03:44:02.230Z,18.63
2023-04-02T03:46:26.411Z,20.35
2023-04-02T03:48:45.316Z,18.90
2023-04-02T03:50:58.585Z,17.13
2023-04-02T03:53:06.485Z,18.60
2023-04-02T03:55:18.786Z,16.33
2023-04-02T03:57:33.116Z,18.10
2023-04-02T03:59:47.383Z,17.50
2023-04-02T04:02:01.754Z,18.25
2023-04-02T04:04:16.991Z,17.10
2023-04-02T04:06:28.743Z,18.48
2023-04-02T04:08:43.809Z,17.98
2023-04-02T04:10:56.146Z,17.83
2023-04-02T04:13:09.738Z,17.35
2023-04-02T04:15:23.628Z,18.45
2023-04-02T04:17:39.694Z,21.60
2023-04-02T04:19:52.993Z,19.65
2023-04-02T04:22:15.389Z,20.50
2023-04-02T04:24:26.302Z,19.15
2023-04-02T04:26:50.696Z,20.65
2023-04-02T04:29:07.032Z,19.20
2023-04-02T04:31:24.618Z,20.10
2023-04-02T04:33:40.705Z,22.40
2023-04-02T04:35:59.761Z,22.45
2023-04-02T04:38:18.053Z,20.35
2023-04-02T04:40:29.585Z,20.52
2023-04-02T04:42:41.592Z,19.60
2023-04-02T04:44:55.376Z,17.47
2023-04-02T04:47:05.984Z,20.63
2023-04-02T04:49:18.034Z,18.75
2023-04-02T04:51:32.937Z,17.85
2023-04-02T04:53:51.335Z,19.00
2023-04-02T04:56:18.150Z,17.20
2023-04-02T04:58:35.952Z,15.70
2023-04-02T05:00:51.486Z,19.08
2023-04-02T05:03:05.892Z,18.10
2023-04-02T05:05:22.485Z,14.55
2023-04-02T05:07:34.835Z,13.95
2023-04-02T05:09:45.350Z,15.00
2023-04-02T05:11:59.599Z,15.63
2023-04-02T05:14:10.208Z,14.10
2023-04-02T05:16:26.480Z,15.40
2023-04-02T05:18:39.517Z,13.25
2023-04-02T05:20:54.587Z,12.98
2023-04-02T05:23:09.292Z,13.88
2023-04-02T05:25:25.739Z,15.35
2023-04-02T05:27:42.346Z,12.68
2023-04-02T05:29:59.402Z,12.57
2023-04-02T05:32:11.656Z,14.15
2023-04-02T05:34:28.107Z,16.55
2023-04-02T05:36:36.729Z,13.63
2023-04-02T05:38:50.305Z,17.63
2023-04-02T05:41:07.112Z,14.07
2023-04-02T05:43:18.748Z,13.75
2023-04-02T05:45:34.114Z,13.80
2023-04-02T05:47:44.831Z,14.38
2023-04-02T05:50:04.826Z,14.32
2023-04-02T05:52:20.144Z,13.68
2023-04-02T05:54:33.780Z,13.52
2023-04-02T05:56:44.951Z,14.32
2023-04-02T05:58:55.288Z,12.45
2023-04-02T06:01:19.023Z,15.07
2023-04-02T06:03:34.288Z,11.90
2023-04-02T06:05:45.934Z,13.57
2023-04-02T06:07:58.079Z,12.35
2023-04-02T06:10:11.404Z,14.35
2023-04-02T06:12:28.261Z,12.05
2023-04-02T06:14:35.699Z,12.50
2023-04-02T06:16:44.139Z,12.50
2023-04-02T06:18:51.853Z,15.60
2023-04-02T06:20:59.908Z,11.45
2023-04-02T06:23:13.691Z,12.23
2023-04-02T06:25:27.687Z,12.40
2023-04-02T06:27:37.176Z,11.95
2023-04-02T06:29:53.071Z,11.60
2023-04-02T06:32:03.731Z,13.25
2023-04-02T06:34:17.255Z,13.25
2023-04-02T06:36:32.012Z,12.30
2023-04-02T06:38:45.747Z,11.77
2023-04-02T06:40:58.925Z,12.18
2023-04-02T06:43:21.718Z,13.57
2023-04-02T06:45:49.520Z,11.75
2023-04-02T06:48:20.526Z,12.32
2023-04-02T06:50:37.025Z,11.85
2023-04-02T06:52:50.759Z,13.88
2023-04-02T06:54:58.638Z,15.45
2023-04-02T06:57:10.255Z,16.42
2023-04-02T06:59:21.009Z,13.57
2023-04-02T07:01:32.475Z,13.38
2023-04-02T07:03:40.138Z,13.20
2023-04-02T07:06:19.003Z,11.88
2023-04-02T07:08:28.494Z,14.15
2023-04-02T07:10:36.143Z,12.30
2023-04-02T07:12:46.177Z,11.35
2023-04-02T07:14:53.564Z,14.68
2023-04-02T07:17:02.172Z,11.98
2023-04-02T07:19:09.923Z,12.07
2023-04-02T07:21:18.128Z,12.10
2023-04-02T07:23:26.219Z,13.25
2023-04-02T07:25:33.911Z,16.05
2023-04-02T07:27:41.108Z,15.48
2023-04-02T07:29:50.233Z,13.15
2023-04-02T07:31:57.442Z,13.60
2023-04-02T07:34:05.416Z,14.95
2023-04-02T07:36:17.846Z,13.38
2023-04-02T07:38:25.624Z,12.38
2023-04-02T07:40:33.314Z,13.93
2023-04-02T07:42:40.748Z,14.35
2023-04-02T07:44:49.635Z,14.13
2023-04-02T07:46:57.083Z,17.33
2023-04-02T07:49:04.291Z,12.48
2023-04-02T07:51:19.574Z,16.38
2023-04-02T07:53:32.452Z,13.27
2023-04-02T07:55:39.962Z,12.50
2023-04-02T07:57:54.060Z,12.73
2023-04-02T08:00:03.026Z,12.48
2023-04-02T08:02:25.849Z,14.68
2023-04-02T08:04:33.372Z,17.92
2023-04-02T08:06:40.918Z,11.38
2023-04-02T08:08:48.263Z,12.18
2023-04-02T08:10:56.559Z,11.95
2023-04-02T08:13:03.693Z,13.57
2023-04-02T08:15:17.454Z,13.27
2023-04-02T08:17:24.772Z,14.43
2023-04-02T08:19:33.730Z,13.60
2023-04-02T08:21:51.309Z,12.52
2023-04-02T08:23:59.002Z,12.95
2023-04-02T08:26:06.652Z,14.02
2023-04-02T08:28:14.438Z,14.23
2023-04-02T08:30:24.181Z,13.75
2023-04-02T08:32:31.928Z,12.63
2023-04-02T08:34:39.057Z,13.05
2023-04-02T08:36:48.440Z,12.63
2023-04-02T08:38:55.621Z,14.43
2023-04-02T08:41:06.088Z,13.48
2023-04-02T08:43:29.909Z,11.80
2023-04-02T08:45:54.836Z,12.68
2023-04-02T08:48:04.316Z,12.43
2023-04-02T08:50:19.500Z,11.57
2023-04-02T08:52:29.245Z,13.38
2023-04-02T08:54:39.401Z,14.90
2023-04-02T08:56:52.934Z,14.07
2023-04-02T08:59:02.674Z,14.10
2023-04-02T09:01:19.754Z,14.10
2023-04-02T09:03:34.897Z,14.38
2023-04-02T09:05:45.773Z,12.43
2023-04-02T09:07:55.404Z,14.13
2023-04-02T09:10:02.709Z,12.10
2023-04-02T09:12:18.635Z,12.52
2023-04-02T09:14:35.229Z,14.93
2023-04-02T09:16:49.416Z,13.00
2023-04-02T09:18:57.425Z,13.65
2023-04-02T09:21:18.795Z,15.82
2023-04-02T09:23:28.982Z,11.93
2023-04-02T09:25:36.824Z,15.35
2023-04-02T09:27:44.380Z,13.88
2023-04-02T09:29:54.900Z,13.27
2023-04-02T09:32:16.369Z,11.25
2023-04-02T09:34:35.166Z,14.45
2023-04-02T09:36:43.578Z,13.18
2023-04-02T09:39:08.309Z,13.45
2023-04-02T09:41:23.587Z,16.85
2023-04-02T09:43:32.271Z,14.13
2023-04-02T09:45:39.980Z,14.75
2023-04-02T09:47:49.488Z,12.57
2023-04-02T09:49:56.873Z,16.05
2023-04-02T09:52:32.008Z,14.07
2023-04-02T09:54:42.828Z,13.05
2023-04-02T09:57:24.477Z,17.58
2023-04-02T09:59:32.209Z,14.30
2023-04-02T10:01:40.392Z,16.95
2023-04-02T10:03:49.758Z,13.70
2023-04-02T10:06:12.284Z,14.68
2023-04-02T10:08:23.871Z,13.50
2023-04-02T10:10:35.059Z,16.08
2023-04-02T10:12:46.739Z,12.73
2023-04-02T10:14:54.527Z,14.40
2023-04-02T10:17:07.378Z,14.50
2023-04-02T10:19:23.130Z,12.48
2023-04-02T10:21:32.867Z,15.77
2023-04-02T10:23:40.252Z,15.30
2023-04-02T10:25:52.962Z,13.15
2023-04-02T10:28:11.040Z,16.10
2023-04-02T10:30:26.488Z,15.45
2023-04-02T10:32:40.069Z,15.40
2023-04-02T10:34:56.476Z,12.43
2023-04-02T10:37:12.906Z,17.63
2023-04-02T10:39:24.955Z,13.30
2023-04-02T10:41:37.919Z,17.48
2023-04-02T10:43:59.374Z,12.48
2023-04-02T10:46:24.451Z,14.55
2023-04-02T10:48:40.628Z,15.10
2023-04-02T10:50:54.368Z,13.52
2023-04-02T10:53:09.585Z,15.82
2023-04-02T10:55:21.709Z,13.80
2023-04-02T10:57:37.910Z,15.88
2023-04-02T10:59:50.434Z,15.85
2023-04-02T11:02:13.164Z,16.33
2023-04-02T11:04:23.485Z,13.25
2023-04-02T11:06:39.829Z,13.57
2023-04-02T11:08:49.930Z,15.98
2023-04-02T11:11:04.319Z,14.05
2023-04-02T11:13:21.572Z,18.40
2023-04-02T11:15:30.827Z,13.43
2023-04-02T11:17:38.785Z,16.55
2023-04-02T11:19:46.743Z,14.38
2023-04-02T11:22:00.268Z,18.55
2023-04-02T11:24:09.742Z,17.23
2023-04-02T11:26:48.413Z,14.10
2023-04-02T11:29:08.652Z,15.02
2023-04-02T11:33:50.082Z,15.68
2023-04-02T11:35:57.983Z,20.75
2023-04-02T11:38:28.167Z,18.67
2023-04-02T11:40:49.180Z,19.15
2023-04-02T11:42:56.766Z,13.88
2023-04-02T11:45:25.978Z,18.10
2023-04-02T11:47:34.339Z,16.35
2023-04-02T11:50:01.497Z,17.00
2023-04-02T11:52:23.513Z,17.77
2023-04-02T11:54:35.291Z,19.33
2023-04-02T11:56:50.043Z,18.38
2023-04-02T11:59:13.718Z,19.35
2023-04-02T12:04:32.547Z,20.35
2023-04-02T12:06:54.364Z,20.40
2023-04-02T12:09:13.679Z,22.30
2023-04-02T12:11:33.150Z,20.48
2023-04-02T12:13:59.581Z,20.70
2023-04-02T12:16:23.474Z,17.52
2023-04-02T12:18:30.942Z,17.05
2023-04-02T12:20:38.844Z,18.95
2023-04-02T12:22:52.230Z,16.45
2023-04-02T12:25:02.739Z,13.38
2023-04-02T12:27:23.427Z,17.67
2023-04-02T12:29:31.885Z,17.13
2023-04-02T12:31:48.245Z,18.05
2023-04-02T12:33:57.208Z,18.90
2023-04-02T12:36:05.539Z,14.90
2023-04-02T12:38:24.013Z,13.65
2023-04-02T12:40:31.913Z,17.88
2023-04-02T12:42:41.573Z,13.70
2023-04-02T12:44:53.188Z,15.18
2023-04-02T12:49:47.234Z,15.05
2023-04-02T12:52:01.745Z,17.83
2023-04-02T12:54:09.532Z,13.45
2023-04-02T12:56:24.341Z,18.25
2023-04-02T12:58:40.228Z,16.85
2023-04-02T13:00:47.867Z,16.77
2023-04-02T13:03:01.328Z,20.20
2023-04-02T13:05:09.451Z,20.40
2023-04-02T13:07:21.603Z,17.70
2023-04-02T13:09:38.103Z,15.07
2023-04-02T13:11:46.102Z,15.13
2023-04-02T13:13:55.536Z,19.83
2023-04-02T13:16:11.403Z,14.65
2023-04-02T13:18:24.753Z,18.40
2023-04-02T13:20:40.429Z,19.50
2023-04-02T13:22:48.186Z,16.67
2023-04-02T13:25:00.382Z,16.10
2023-04-02T13:27:08.221Z,18.77
2023-04-02T13:29:26.618Z,19.35
2023-04-02T13:31:35.368Z,18.92
2023-04-02T13:33:42.924Z,14.73
2023-04-02T13:35:50.850Z,17.33
2023-04-02T13:37:58.224Z,15.95
2023-04-02T13:40:06.710Z,16.48
2023-04-02T13:42:15.857Z,15.20
2023-04-02T13:44:27.270Z,14.90
2023-04-02T13:46:36.764Z,14.38
2023-04-02T13:48:44.042Z,14.05
2023-04-02T13:50:54.406Z,15.13
2023-04-02T13:53:12.901Z,19.92
2023-04-02T13:55:21.162Z,16.60
2023-04-02T13:57:28.277Z,15.93
2023-04-02T13:59:37.368Z,16.60
2023-04-02T14:01:46.595Z,16.58
2023-04-02T14:03:54.628Z,17.55
2023-04-02T14:06:09.405Z,14.60
2023-04-02T14:08:24.369Z,15.15
2023-04-02T14:10:46.809Z,17.38
2023-04-02T14:13:09.351Z,15.05
2023-04-02T14:15:29.336Z,15.77
2023-04-02T14:17:48.488Z,14.98
2023-04-02T14:20:13.092Z,14.75
2023-04-02T14:22:29.995Z,13.93
2023-04-02T14:24:47.366Z,13.00
2023-04-02T14:27:21.941Z,14.82
2023-04-02T14:29:35.425Z,20.15
2023-04-02T14:31:50.078Z,13.93
2023-04-02T14:34:05.706Z,15.70
2023-04-02T14:36:20.053Z,18.80
2023-04-02T14:38:48.177Z,20.40
2023-04-02T14:40:59.505Z,15.18
2023-04-02T14:43:11.398Z,19.08
2023-04-02T14:47:34.553Z,17.00
2023-04-02T14:49:44.310Z,15.38
2023-04-02T14:51:54.983Z,13.75
2023-04-02T14:54:12.803Z,14.63
2023-04-02T14:56:21.108Z,15.43
2023-04-02T14:58:33.518Z,14.90
2023-04-02T15:00:44.436Z,18.73
2023-04-02T15:02:59.091Z,13.00
2023-04-02T15:05:14.206Z,15.32
2023-04-02T15:07:27.940Z,15.93
2023-04-02T15:09:40.936Z,16.45
2023-04-02T15:11:53.926Z,20.13
2023-04-02T15:14:06.821Z,15.93
2023-04-02T15:16:20.315Z,16.23
2023-04-02T15:18:29.703Z,14.02
2023-04-02T15:20:42.978Z,15.90
2023-04-02T15:23:05.167Z,16.88
2023-04-02T15:25:24.683Z,17.58
2023-04-02T15:27:42.155Z,14.07
2023-04-02T15:29:56.557Z,14.85
2023-04-02T15:32:09.985Z,15.38
2023-04-02T15:37:08.678Z,18.08
2023-04-02T15:42:06.371Z,15.88
2023-04-02T15:44:17.001Z,16.17
2023-04-02T15:46:30.458Z,15.55
2023-04-02T15:49:08.980Z,18.35
2023-04-02T15:51:29.213Z,15.27
2023-04-02T15:53:49.295Z,18.52
2023-04-02T15:56:16.098Z,18.42
2023-04-02T15:58:33.253Z,15.73
2023-04-02T16:00:45.698Z,17.17
2023-04-02T16:03:18.339Z,19.65
2023-04-02T16:05:36.898Z,17.50
2023-04-02T16:08:13.868Z,18.58
2023-04-02T16:10:37.903Z,14.57
2023-04-02T16:12:47.994Z,18.60
2023-04-02T16:14:57.743Z,19.65
2023-04-02T16:17:21.419Z,19.58
2023-04-02T16:19:37.502Z,19.85
2023-04-02T16:21:52.306Z,17.15
2023-04-02T16:24:01.384Z,22.83
2023-04-02T16:26:25.511Z,18.10
2023-04-02T16:28:39.402Z,16.73
2023-04-02T16:30:56.349Z,19.95
2023-04-02T16:33:22.180Z,21.85
2023-04-02T16:35:43.202Z,17.75
2023-04-02T16:40:11.169Z,16.58
2023-04-02T16:42:29.150Z,19.02
2023-04-02T16:44:47.085Z,18.13
2023-04-02T16:47:07.370Z,18.33
2023-04-02T16:49:23.721Z,19.42
2023-04-02T16:51:40.990Z,24.77
2023-04-02T16:56:36.769Z,19.20
2023-04-02T16:58:53.734Z,20.38
2023-04-02T17:01:06.509Z,20.48
2023-04-02T17:03:31.850Z,22.10
2023-04-02T17:05:53.220Z,21.02
2023-04-02T17:08:15.607Z,20.10
2023-04-02T17:10:35.472Z,19.80
2023-04-02T17:13:04.782Z,20.60
2023-04-02T17:15:27.886Z,22.33
2023-04-02T17:17:36.102Z,24.42
2023-04-02T17:19:45.530Z,20.55
2023-04-02T17:21:56.041Z,18.98
2023-04-02T17:24:12.384Z,20.60
2023-04-02T17:26:23.713Z,20.33
2023-04-02T17:28:37.961Z,22.42
2023-04-02T17:30:48.162Z,21.73
2023-04-02T17:32:55.536Z,19.95
2023-04-02T17:35:19.324Z,21.13
2023-04-02T17:37:34.438Z,25.38
2023-04-02T17:39:48.386Z,20.25
2023-04-02T17:42:19.265Z,23.00
2023-04-02T17:44:54.970Z,20.27
2023-04-02T17:47:09.879Z,23.15
2023-04-02T17:49:30.019Z,26.65
2023-04-02T17:51:43.141Z,21.55
2023-04-02T17:54:02.671Z,21.10
2023-04-02T17:56:32.980Z,23.38
2023-04-02T17:59:11.393Z,20.05
2023-04-02T18:01:27.933Z,22.98
2023-04-02T18:03:51.307Z,19.67
2023-04-02T18:06:02.536Z,22.65
2023-04-02T18:08:23.593Z,19.75
2023-04-02T18:10:41.196Z,20.52
2023-04-02T18:13:00.941Z,19.15
2023-04-02T18:15:44.065Z,23.25
2023-04-02T18:17:56.267Z,18.83
2023-04-02T18:20:12.723Z,20.58
2023-04-02T18:25:04.248Z,21.92
2023-04-02T18:27:25.921Z,22.95
2023-04-02T18:29:45.900Z,20.70
2023-04-02T18:32:00.253Z,19.35
2023-04-02T18:36:56.340Z,19.50
2023-04-02T18:39:21.901Z,21.98
2023-04-02T18:41:45.318Z,21.17
2023-04-02T18:44:06.834Z,20.77
2023-04-02T18:46:23.764Z,18.90
2023-04-02T18:48:42.004Z,17.63
2023-04-02T18:50:49.317Z,19.67
2023-04-02T18:55:25.849Z,23.20
2023-04-02T18:57:37.082Z,19.83
2023-04-02T18:59:49.946Z,19.98
2023-04-02T19:01:59.582Z,20.05
2023-04-02T19:04:10.692Z,21.42
2023-04-02T19:06:22.292Z,21.02
2023-04-02T19:08:36.278Z,18.63
2023-04-02T19:10:47.150Z,20.70
2023-04-02T19:12:54.535Z,19.25
2023-04-02T19:15:03.362Z,20.17
2023-04-02T19:17:20.162Z,21.30
2023-04-02T19:19:29.958Z,18.83
2023-04-02T19:21:45.126Z,20.25
2023-04-02T19:24:06.336Z,21.23
2023-04-02T19:26:17.361Z,20.45
2023-04-02T19:28:48.713Z,19.25
2023-04-02T19:31:18.218Z,20.52
2023-04-02T19:33:37.838Z,21.83
2023-04-02T19:35:51.030Z,18.67
2023-04-02T19:38:09.553Z,19.55
2023-04-02T19:40:30.048Z,22.83
2023-04-02T19:42:48.555Z,20.80
2023-04-02T19:44:58.694Z,21.05
2023-04-02T19:47:06.096Z,22.25
2023-04-02T19:49:17.870Z,18.35
2023-04-02T19:51:25.205Z,19.02
2023-04-02T19:53:32.854Z,21.05
2023-04-02T19:55:42.744Z,18.95
2023-04-02T19:57:51.305Z,23.10
2023-04-02T19:59:58.561Z,19.75
2023-04-02T20:02:08.205Z,22.73
2023-04-02T20:04:15.336Z,19.35
2023-04-02T20:06:22.950Z,19.15
2023-04-02T20:08:30.286Z,21.38
2023-04-02T20:10:37.989Z,22.92
2023-04-02T20:12:47.318Z,23.98
2023-04-02T20:14:54.907Z,20.02
2023-04-02T20:17:02.389Z,21.92
2023-04-02T20:19:09.884Z,21.13
2023-04-02T20:21:17.168Z,23.38
2023-04-02T20:23:24.555Z,22.67
2023-04-02T20:25:32.004Z,21.08
2023-04-02T20:27:39.079Z,20.40
2023-04-02T20:30:04.288Z,21.48
2023-04-02T20:32:11.973Z,19.40
2023-04-02T20:34:19.845Z,22.35
2023-04-02T20:36:27.566Z,22.20
2023-04-02T20:38:36.042Z,24.15
2023-04-02T20:40:47.663Z,25.55
2023-04-02T20:42:55.509Z,22.15
2023-04-02T20:45:18.204Z,23.98
2023-04-02T20:47:25.597Z,27.45
2023-04-02T20:49:32.926Z,20.70
2023-04-02T20:51:40.067Z,23.13
2023-04-02T20:53:47.709Z,25.80
2023-04-02T20:55:55.802Z,20.25
2023-04-02T20:58:03.753Z,21.08
2023-04-02T21:00:20.817Z,24.02
2023-04-02T21:02:28.383Z,21.00
2023-04-02T21:04:35.571Z,22.83
2023-04-02T21:06:44.162Z,26.77
2023-04-02T21:08:52.052Z,24.42
2023-04-02T21:11:06.099Z,25.20
2023-04-02T21:13:13.227Z,27.80
2023-04-02T21:15:35.365Z,22.92
2023-04-02T21:17:42.962Z,23.02
2023-04-02T21:19:51.359Z,28.17
2023-04-02T21:21:59.410Z,25.92
2023-04-02T21:24:09.104Z,24.00
2023-04-02T21:26:17.785Z,25.80
2023-04-02T21:28:25.407Z,24.65
2023-04-02T21:32:54.791Z,23.25
2023-04-02T21:35:01.960Z,23.65
2023-04-02T21:37:09.283Z,21.88
2023-04-02T21:39:20.418Z,24.50
2023-04-02T21:41:29.640Z,22.10
2023-04-02T21:43:36.767Z,24.92
2023-04-02T21:45:45.790Z,25.48
2023-04-02T21:47:53.229Z,21.13
2023-04-02T21:50:00.819Z,23.33
2023-04-02T21:52:08.403Z,26.17
2023-04-02T21:54:16.667Z,24.30
2023-04-02T21:56:24.876Z,24.13
2023-04-02T22:00:57.847Z,30.83
2023-04-02T22:03:05.177Z,28.63
2023-04-02T22:05:12.857Z,32.45
2023-04-02T22:07:20.137Z,35.67
2023-04-02T22:09:29.269Z,46.67
2023-04-02T22:11:38.597Z,37.70
2023-04-02T22:13:47.206Z,37.63
2023-04-02T22:15:56.492Z,43.63
2023-04-02T22:18:03.863Z,52.90
2023-04-02T22:20:12.413Z,58.85
2023-04-02T22:22:19.985Z,63.00
2023-04-02T22:24:27.883Z,87.80
2023-04-02T22:26:54.316Z,68.10
2023-04-02T22:29:02.214Z,59.15
2023-04-02T22:31:23.969Z,45.97
2023-04-02T22:33:33.317Z,38.58
2023-04-02T22:35:41.372Z,33.75
2023-04-02T22:37:49.113Z,46.95
2023-04-02T22:39:56.248Z,49.70
2023-04-02T22:42:07.060Z,36.65
2023-04-02T22:44:18.137Z,37.97
2023-04-02T22:46:28.935Z,34.05
2023-04-02T22:48:36.615Z,33.00
2023-04-02T22:50:44.132Z,32.85
2023-04-02T22:52:51.465Z,31.08
2023-04-02T22:54:59.110Z,35.85
2023-04-02T22:57:21.999Z,32.65
2023-04-02T22:59:29.598Z,31.95
2023-04-02T23:01:39.935Z,37.28
2023-04-02T23:03:47.599Z,32.78
2023-04-02T23:06:03.334Z,35.00
2023-04-02T23:08:11.235Z,31.50
2023-04-02T23:10:19.240Z,32.97
2023-04-02T23:12:27.077Z,31.90
2023-04-02T23:14:35.750Z,33.00
2023-04-02T23:16:44.773Z,30.80
2023-04-02T23:18:52.165Z,32.70
2023-04-02T23:20:59.955Z,32.78
2023-04-02T23:23:07.750Z,32.33
2023-04-02T23:25:15.348Z,33.13
2023-04-02T23:27:22.419Z,32.80
2023-04-02T23:29:29.910Z,34.90
2023-04-02T23:31:37.138Z,37.72
2023-04-02T23:33:46.267Z,32.03
2023-04-02T23:35:53.682Z,33.05
2023-04-02T23:38:01.301Z,33.30
2023-04-02T23:40:09.659Z,31.15
2023-04-02T23:42:17.250Z,36.72
2023-04-02T23:44:24.686Z,33.45
2023-04-02T23:46:33.188Z,30.55
2023-04-02T23:48:40.536Z,30.80
2023-04-02T23:50:50.531Z,35.08
2023-04-02T23:52:57.640Z,31.58
2023-04-02T23:55:05.254Z,32.65
2023-04-02T23:57:12.684Z,37.00
2023-04-02T23:59:20.283Z,34.05
